createdAt,value
2019-01-03T00:02:03.068Z,51.36
2019-01-03T00:04:51.791Z,51.37
2019-01-03T00:07:40.370Z,51.67
2019-01-03T00:10:29.455Z,51.75
2019-01-03T00:13:18.335Z,52.32
2019-01-03T00:16:09.955Z,52.35
2019-01-03T00:18:59.076Z,52.27
2019-01-03T00:21:57.057Z,52.35
2019-01-03T00:25:01.974Z,52.23
2019-01-03T00:27:53.490Z,52.12
2019-01-03T00:30:58.665Z,52.32
2019-01-03T00:33:47.390Z,52.34
2019-01-03T00:36:36.101Z,52.27
2019-01-03T00:39:27.954Z,52.26
2019-01-03T00:42:28.577Z,52.24
2019-01-03T00:45:26.064Z,52.38
2019-01-03T00:48:14.866Z,52.48
2019-01-03T00:51:03.309Z,52.51
2019-01-03T00:54:07.928Z,52.46
2019-01-03T00:57:12.404Z,52.47
2019-01-03T01:00:01.160Z,52.41
2019-01-03T01:03:06.504Z,52.45
2019-01-03T01:06:01.170Z,52.42
2019-01-03T01:09:05.773Z,52.28
2019-01-03T01:11:57.631Z,52.25
2019-01-03T01:15:02.641Z,52.24
2019-01-03T01:17:57.482Z,52.40
2019-01-03T01:21:01.299Z,53.04
2019-01-03T01:24:06.615Z,52.84
2019-01-03T01:27:01.553Z,53.02
2019-01-03T01:29:58.981Z,52.66
2019-01-03T01:33:04.538Z,52.77
2019-01-03T01:36:11.158Z,53.53
2019-01-03T01:39:06.023Z,53.74
2019-01-03T01:41:54.711Z,53.56
2019-01-03T01:44:43.158Z,53.48
2019-01-03T01:47:47.967Z,53.18
2019-01-03T01:50:52.977Z,52.89
2019-01-03T01:53:50.613Z,52.98
2019-01-03T01:56:51.465Z,53.27
2019-01-03T01:59:42.574Z,53.37
2019-01-03T02:02:31.499Z,53.74
2019-01-03T02:05:29.672Z,53.77
2019-01-03T02:08:18.626Z,53.89
2019-01-03T02:11:23.869Z,53.91
2019-01-03T02:14:15.476Z,53.76
2019-01-03T02:17:12.855Z,53.76
2019-01-03T02:20:17.756Z,53.84
2019-01-03T02:23:06.485Z,53.83
2019-01-03T02:26:06.842Z,53.68
2019-01-03T02:28:55.550Z,53.68
2019-01-03T02:31:50.188Z,53.71
2019-01-03T02:34:55.142Z,53.59
2019-01-03T02:37:44.238Z,53.54
2019-01-03T02:40:33.008Z,54.00
2019-01-03T02:43:24.367Z,53.89
2019-01-03T02:46:24.829Z,53.65
2019-01-03T02:49:28.599Z,53.56
2019-01-03T02:52:23.137Z,53.37
2019-01-03T02:55:17.270Z,53.70
2019-01-03T02:58:06.040Z,54.02
2019-01-03T03:01:00.724Z,54.16
2019-01-03T03:03:58.110Z,54.38
2019-01-03T03:07:02.671Z,54.29
2019-01-03T03:09:57.326Z,54.39
2019-01-03T03:13:02.172Z,54.31
2019-01-03T03:15:50.908Z,54.51
2019-01-03T03:18:42.333Z,54.71
2019-01-03T03:21:31.329Z,55.04
2019-01-03T03:24:19.949Z,55.02
2019-01-03T03:27:08.648Z,55.22
2019-01-03T03:30:15.119Z,55.14
2019-01-03T03:33:19.153Z,55.46
2019-01-03T03:36:10.769Z,55.85
2019-01-03T03:38:59.526Z,55.87
2019-01-03T03:41:51.309Z,55.73
2019-01-03T03:44:42.575Z,55.65
2019-01-03T03:47:33.882Z,55.33
2019-01-03T03:50:40.829Z,55.32
2019-01-03T03:53:35.803Z,55.11
2019-01-03T03:56:42.566Z,55.23
2019-01-03T03:59:36.980Z,55.27
2019-01-03T04:02:34.613Z,55.39
2019-01-03T04:05:32.430Z,55.13
2019-01-03T04:08:38.688Z,55.08
2019-01-03T04:11:39.108Z,54.99
2019-01-03T04:14:44.321Z,54.90
2019-01-03T04:17:38.731Z,54.80
2019-01-03T04:20:30.284Z,54.91
2019-01-03T04:23:19.555Z,55.04
2019-01-03T04:26:24.378Z,55.18
2019-01-03T04:29:19.390Z,55.01
2019-01-03T04:32:10.921Z,54.80
2019-01-03T04:35:05.085Z,55.09
2019-01-03T04:38:09.503Z,55.84
2019-01-03T04:41:06.862Z,55.80
2019-01-03T04:43:57.899Z,55.94
2019-01-03T04:46:58.818Z,55.59
2019-01-03T04:49:47.870Z,55.30
2019-01-03T04:52:52.615Z,55.02
2019-01-03T04:55:57.492Z,54.79
2019-01-03T04:58:49.644Z,54.59
2019-01-03T05:02:05.566Z,54.51
2019-01-03T05:05:10.316Z,54.35
2019-01-03T05:08:01.807Z,54.73
2019-01-03T05:10:53.746Z,54.96
2019-01-03T05:13:50.802Z,54.72
2019-01-03T05:16:42.364Z,54.50
2019-01-03T05:19:42.630Z,54.39
2019-01-03T05:22:31.387Z,54.59
2019-01-03T05:25:35.890Z,54.75
2019-01-03T05:28:25.005Z,54.97
2019-01-03T05:31:25.814Z,55.08
2019-01-03T05:34:20.742Z,56.05
2019-01-03T05:37:12.345Z,56.25
2019-01-03T05:40:16.920Z,56.37
2019-01-03T05:43:05.975Z,56.62
2019-01-03T05:45:58.677Z,56.84
2019-01-03T05:48:53.506Z,56.66
2019-01-03T05:51:51.054Z,56.29
2019-01-03T05:54:55.282Z,56.00
2019-01-03T05:58:00.407Z,56.23
2019-01-03T06:00:54.865Z,55.94
2019-01-03T06:03:43.885Z,55.70
2019-01-03T06:06:35.085Z,56.59
2019-01-03T06:09:40.170Z,56.89
2019-01-03T06:12:31.729Z,56.90
2019-01-03T06:15:23.878Z,57.14
2019-01-03T06:18:27.631Z,57.74
2019-01-03T06:21:19.030Z,57.84
2019-01-03T06:24:10.393Z,58.09
2019-01-03T06:27:07.757Z,57.98
2019-01-03T06:30:12.366Z,57.64
2019-01-03T06:33:10.393Z,58.33
2019-01-03T06:36:07.921Z,59.78
2019-01-03T06:39:12.575Z,61.62
2019-01-03T06:42:18.908Z,62.61
2019-01-03T06:45:24.583Z,62.76
2019-01-03T06:48:29.461Z,61.23
2019-01-03T06:51:36.238Z,59.73
2019-01-03T06:54:28.174Z,58.72
2019-01-03T06:57:26.171Z,59.25
2019-01-03T07:00:15.394Z,59.20
2019-01-03T07:03:19.788Z,59.15
2019-01-03T07:06:23.333Z,58.66
2019-01-03T07:09:23.985Z,57.75
2019-01-03T07:12:12.552Z,56.94
2019-01-03T07:15:17.137Z,56.50
2019-01-03T07:18:05.929Z,56.34
2019-01-03T07:21:10.877Z,56.23
2019-01-03T07:24:14.465Z,56.28
2019-01-03T07:27:05.538Z,57.32
2019-01-03T07:30:10.318Z,57.17
2019-01-03T07:33:08.027Z,56.77
2019-01-03T07:35:56.406Z,56.44
2019-01-03T07:38:51.016Z,56.37
2019-01-03T07:41:46.409Z,56.20
2019-01-03T07:44:49.990Z,56.01
2019-01-03T07:47:54.356Z,56.98
2019-01-03T07:50:45.937Z,58.08
2019-01-03T07:53:50.599Z,57.32
2019-01-03T07:56:57.229Z,57.03
2019-01-03T07:59:51.853Z,57.28
2019-01-03T08:02:46.426Z,57.47
2019-01-03T08:05:46.468Z,57.42
2019-01-03T08:08:53.483Z,57.55
2019-01-03T08:11:58.109Z,57.51
2019-01-03T08:15:02.844Z,57.52
2019-01-03T08:18:00.281Z,58.06
2019-01-03T08:21:07.450Z,57.92
2019-01-03T08:23:56.082Z,57.84
2019-01-03T08:26:47.841Z,57.97
2019-01-03T08:29:42.195Z,58.60
2019-01-03T08:32:46.483Z,58.58
2019-01-03T08:35:44.323Z,58.74
2019-01-03T08:38:48.751Z,58.60
2019-01-03T08:41:43.643Z,58.24
2019-01-03T08:44:44.676Z,57.98
2019-01-03T08:47:39.420Z,57.84
2019-01-03T08:50:45.846Z,57.74
2019-01-03T08:53:35.011Z,57.59
2019-01-03T08:56:26.984Z,57.72
2019-01-03T08:59:32.085Z,58.01
2019-01-03T09:02:32.792Z,57.21
2019-01-03T09:05:37.702Z,57.41
2019-01-03T09:08:35.286Z,57.21
2019-01-03T09:11:36.196Z,56.28
2019-01-03T09:14:27.088Z,56.08
2019-01-03T09:17:24.228Z,55.98
2019-01-03T09:20:29.503Z,56.36
2019-01-03T09:23:36.327Z,55.18
2019-01-03T09:26:37.332Z,54.60
2019-01-03T09:29:43.901Z,54.39
2019-01-03T09:32:32.908Z,54.47
2019-01-03T09:35:27.763Z,54.41
2019-01-03T09:38:22.150Z,54.32
2019-01-03T09:41:26.824Z,54.25
2019-01-03T09:44:27.364Z,54.18
2019-01-03T09:47:14.918Z,54.10
2019-01-03T09:50:02.412Z,54.20
2019-01-03T09:52:49.828Z,53.93
2019-01-03T09:55:37.164Z,53.98
2019-01-03T09:58:24.284Z,54.50
2019-01-03T10:01:11.664Z,54.95
2019-01-03T10:03:59.123Z,54.71
2019-01-03T10:06:46.307Z,54.59
2019-01-03T10:09:33.770Z,54.83
2019-01-03T10:12:20.943Z,54.71
2019-01-03T10:15:08.298Z,54.40
2019-01-03T10:17:55.657Z,54.48
2019-01-03T10:20:43.038Z,54.40
2019-01-03T10:23:30.597Z,54.36
2019-01-03T10:26:18.776Z,54.79
2019-01-03T10:29:05.684Z,54.85
2019-01-03T10:31:52.676Z,55.23
2019-01-03T10:34:39.897Z,55.33
2019-01-03T10:37:27.330Z,55.70
2019-01-03T10:40:14.493Z,56.81
2019-01-03T10:43:01.659Z,56.74
2019-01-03T10:45:49.136Z,57.46
2019-01-03T10:48:36.473Z,57.50
2019-01-03T10:51:23.588Z,57.49
2019-01-03T10:54:11.112Z,57.53
2019-01-03T10:56:58.239Z,57.82
2019-01-03T10:59:45.381Z,57.63
2019-01-03T11:02:32.598Z,57.53
2019-01-03T11:05:19.969Z,57.61
2019-01-03T11:08:06.751Z,57.57
2019-01-03T11:10:53.917Z,57.84
2019-01-03T11:13:41.184Z,58.05
2019-01-03T11:16:28.274Z,58.04
2019-01-03T11:19:15.779Z,57.97
2019-01-03T11:22:02.997Z,58.34
2019-01-03T11:24:50.161Z,58.72
2019-01-03T11:27:37.218Z,58.70
2019-01-03T11:30:24.366Z,58.74
2019-01-03T11:33:12.017Z,58.78
2019-01-03T11:35:59.100Z,59.67
2019-01-03T11:38:46.546Z,59.68
2019-01-03T11:41:33.545Z,59.77
2019-01-03T11:44:20.771Z,59.53
2019-01-03T11:47:07.755Z,58.94
2019-01-03T11:49:55.982Z,60.54
2019-01-03T11:52:43.214Z,59.74
2019-01-03T11:55:30.331Z,59.75
2019-01-03T11:58:17.662Z,61.59
2019-01-03T12:01:04.954Z,64.13
2019-01-03T12:03:51.788Z,64.03
2019-01-03T12:06:39.317Z,62.13
2019-01-03T12:09:26.462Z,60.86
2019-01-03T12:12:13.499Z,60.22
2019-01-03T12:15:00.783Z,59.73
2019-01-03T12:17:48.491Z,59.09
2019-01-03T12:20:35.605Z,58.69
2019-01-03T12:23:22.638Z,58.52
2019-01-03T12:26:09.977Z,58.20
2019-01-03T12:28:57.652Z,57.88
2019-01-03T12:31:44.752Z,57.86
2019-01-03T12:34:31.811Z,57.84
2019-01-03T12:37:19.385Z,57.60
2019-01-03T12:40:07.581Z,57.90
2019-01-03T12:42:54.703Z,58.16
2019-01-03T12:45:42.350Z,58.14
2019-01-03T12:48:30.582Z,58.43
2019-01-03T12:51:17.654Z,58.62
2019-01-03T12:54:04.510Z,59.29
2019-01-03T12:56:51.703Z,59.42
2019-01-03T12:59:38.572Z,59.16
2019-01-03T13:02:26.031Z,59.44
2019-01-03T13:05:13.364Z,59.98
2019-01-03T13:08:00.707Z,59.45
2019-01-03T13:10:48.046Z,59.80
2019-01-03T13:13:35.089Z,59.11
2019-01-03T13:16:22.669Z,58.82
2019-01-03T13:19:09.640Z,58.99
2019-01-03T13:21:57.032Z,58.55
2019-01-03T13:24:44.279Z,58.68
2019-01-03T13:27:31.669Z,58.47
2019-01-03T13:30:19.044Z,58.18
2019-01-03T13:33:06.344Z,57.80
2019-01-03T13:35:53.779Z,57.39
2019-01-03T13:38:40.928Z,57.44
2019-01-03T13:41:28.200Z,57.27
2019-01-03T13:44:15.514Z,57.07
2019-01-03T13:47:02.353Z,56.81
2019-01-03T13:49:49.782Z,56.60
2019-01-03T13:52:36.653Z,56.33
2019-01-03T13:55:23.860Z,56.17
2019-01-03T13:58:10.917Z,56.12
2019-01-03T14:00:57.931Z,56.12
2019-01-03T14:03:45.180Z,55.87
2019-01-03T14:06:32.256Z,55.65
2019-01-03T14:09:19.653Z,55.58
2019-01-03T14:12:06.862Z,55.49
2019-01-03T14:14:53.764Z,55.24
2019-01-03T14:17:40.832Z,55.19
2019-01-03T14:20:28.231Z,55.13
2019-01-03T14:23:15.384Z,55.08
2019-01-03T14:26:02.543Z,55.07
2019-01-03T14:28:49.909Z,55.20
2019-01-03T14:31:37.082Z,55.26
2019-01-03T14:34:24.242Z,55.24
2019-01-03T14:37:11.432Z,55.28
2019-01-03T14:39:58.871Z,55.27
2019-01-03T14:42:46.244Z,55.58
2019-01-03T14:45:33.325Z,55.54
2019-01-03T14:48:20.744Z,56.62
2019-01-03T14:51:08.356Z,56.71
2019-01-03T14:53:55.724Z,56.77
2019-01-03T14:56:42.787Z,56.38
2019-01-03T14:59:30.315Z,56.26
2019-01-03T15:02:17.770Z,56.16
2019-01-03T15:05:05.316Z,56.08
2019-01-03T15:07:52.433Z,55.88
2019-01-03T15:10:39.697Z,55.57
2019-01-03T15:13:26.784Z,55.73
2019-01-03T15:16:14.017Z,55.74
2019-01-03T15:19:01.005Z,55.80
2019-01-03T15:21:48.116Z,55.85
2019-01-03T15:24:35.147Z,55.75
2019-01-03T15:27:22.274Z,55.69
2019-01-03T15:30:11.104Z,55.76
2019-01-03T15:32:57.893Z,55.75
2019-01-03T15:35:45.232Z,55.93
2019-01-03T15:38:32.412Z,56.17
2019-01-03T15:41:19.763Z,56.20
2019-01-03T15:44:06.665Z,56.31
2019-01-03T15:46:53.916Z,56.77
2019-01-03T15:49:40.816Z,57.34
2019-01-03T15:52:28.228Z,57.39
2019-01-03T15:55:15.426Z,57.80
2019-01-03T15:58:02.858Z,58.35
2019-01-03T16:00:50.281Z,58.76
2019-01-03T16:03:37.328Z,58.82
2019-01-03T16:06:24.844Z,58.78
2019-01-03T16:09:12.205Z,58.61
2019-01-03T16:11:59.350Z,59.67
2019-01-03T16:14:46.634Z,59.48
2019-01-03T16:17:34.004Z,59.58
2019-01-03T16:20:21.360Z,59.51
2019-01-03T16:23:08.308Z,59.77
2019-01-03T16:25:55.471Z,59.35
2019-01-03T16:28:42.599Z,59.17
2019-01-03T16:31:29.927Z,59.35
2019-01-03T16:34:17.316Z,59.39
2019-01-03T16:37:04.780Z,59.17
2019-01-03T16:39:52.049Z,58.97
2019-01-03T16:42:43.073Z,58.72
2019-01-03T16:45:30.303Z,58.66
2019-01-03T16:48:17.720Z,58.66
2019-01-03T16:51:05.415Z,58.45
2019-01-03T16:53:53.260Z,58.37
2019-01-03T16:56:40.492Z,58.26
2019-01-03T16:59:27.636Z,58.18
2019-01-03T17:02:15.578Z,58.22
2019-01-03T17:05:03.018Z,58.08
2019-01-03T17:07:51.214Z,58.14
2019-01-03T17:10:38.096Z,58.73
2019-01-03T17:13:25.320Z,59.02
2019-01-03T17:16:12.827Z,58.97
2019-01-03T17:19:00.142Z,58.60
2019-01-03T17:21:47.244Z,58.54
2019-01-03T17:24:34.594Z,59.49
2019-01-03T17:27:21.808Z,59.27
2019-01-03T17:30:10.521Z,59.06
2019-01-03T17:32:57.605Z,59.51
2019-01-03T17:35:44.992Z,59.61
2019-01-03T17:38:32.065Z,60.22
2019-01-03T17:41:19.393Z,61.53
2019-01-03T17:44:06.344Z,61.10
2019-01-03T17:46:53.755Z,61.00
2019-01-03T17:49:40.537Z,61.20
2019-01-03T17:52:28.001Z,60.91
2019-01-03T17:55:15.545Z,62.41
2019-01-03T17:58:02.930Z,61.80
2019-01-03T18:00:49.823Z,61.49
2019-01-03T18:03:37.216Z,61.81
2019-01-03T18:06:24.059Z,61.55
2019-01-03T18:09:11.526Z,61.51
2019-01-03T18:11:58.625Z,61.33
2019-01-03T18:14:46.938Z,61.21
2019-01-03T18:17:33.997Z,61.04
2019-01-03T18:20:21.062Z,61.17
2019-01-03T18:23:08.774Z,61.20
2019-01-03T18:25:56.249Z,61.00
2019-01-03T18:28:43.737Z,60.72
2019-01-03T18:31:30.838Z,60.47
2019-01-03T18:34:18.122Z,60.23
2019-01-03T18:37:05.377Z,61.14
2019-01-03T18:39:52.453Z,62.22
2019-01-03T18:42:39.960Z,63.23
2019-01-03T18:45:26.947Z,63.62
2019-01-03T18:48:13.981Z,63.04
2019-01-03T18:51:01.391Z,62.42
2019-01-03T18:53:48.709Z,61.96
2019-01-03T18:56:35.840Z,61.63
2019-01-03T18:59:23.232Z,61.27
2019-01-03T19:02:10.812Z,61.26
2019-01-03T19:04:57.873Z,61.36
2019-01-03T19:07:45.020Z,61.30
2019-01-03T19:10:32.445Z,61.38
2019-01-03T19:13:19.405Z,62.56
2019-01-03T19:16:06.830Z,63.19
2019-01-03T19:18:54.305Z,62.88
2019-01-03T19:21:41.593Z,63.41
2019-01-03T19:24:28.968Z,63.50
2019-01-03T19:27:15.839Z,63.30
2019-01-03T19:30:03.791Z,63.16
2019-01-03T19:32:50.773Z,63.20
2019-01-03T19:35:38.023Z,62.88
2019-01-03T19:38:25.550Z,62.96
2019-01-03T19:41:13.381Z,63.98
2019-01-03T19:44:00.900Z,63.98
2019-01-03T19:46:48.900Z,64.40
2019-01-03T19:49:36.545Z,63.89
2019-01-03T19:52:23.748Z,63.47
2019-01-03T19:55:11.306Z,63.39
2019-01-03T19:57:58.762Z,63.71
2019-01-03T20:00:46.269Z,64.23
2019-01-03T20:03:33.423Z,63.57
2019-01-03T20:06:20.898Z,64.35
2019-01-03T20:09:08.240Z,65.08
2019-01-03T20:11:55.498Z,64.50
2019-01-03T20:14:42.745Z,64.80
2019-01-03T20:17:29.923Z,64.08
2019-01-03T20:20:17.246Z,64.16
2019-01-03T20:23:04.423Z,64.48
2019-01-03T20:25:51.691Z,64.76
2019-01-03T20:28:42.663Z,64.39
2019-01-03T20:31:29.997Z,64.22
2019-01-03T20:34:17.706Z,63.90
2019-01-03T20:37:04.845Z,64.18
2019-01-03T20:39:52.394Z,64.60
2019-01-03T20:42:39.826Z,63.71
2019-01-03T20:45:26.871Z,63.27
2019-01-03T20:48:13.923Z,63.25
2019-01-03T20:51:01.499Z,63.01
2019-01-03T20:53:48.418Z,63.24
2019-01-03T20:56:35.411Z,63.18
2019-01-03T20:59:22.615Z,62.74
2019-01-03T21:02:09.835Z,62.95
2019-01-03T21:04:57.130Z,62.38
2019-01-03T21:07:44.709Z,62.58
2019-01-03T21:10:31.949Z,62.69
2019-01-03T21:13:19.330Z,62.85
2019-01-03T21:16:06.615Z,62.71
2019-01-03T21:18:54.307Z,63.47
2019-01-03T21:21:41.740Z,62.84
2019-01-03T21:24:29.020Z,62.78
2019-01-03T21:27:16.641Z,63.45
2019-01-03T21:30:05.573Z,63.38
2019-01-03T21:32:52.764Z,62.99
2019-01-03T21:35:39.968Z,63.02
2019-01-03T21:38:28.522Z,62.53
2019-01-03T21:41:21.240Z,62.03
2019-01-03T21:44:08.642Z,61.96
2019-01-03T21:46:56.149Z,61.63
2019-01-03T21:49:43.444Z,61.73
2019-01-03T21:52:31.064Z,61.81
2019-01-03T21:55:18.004Z,61.77
2019-01-03T21:58:07.500Z,62.48
2019-01-03T22:00:54.671Z,62.53
2019-01-03T22:03:41.869Z,62.04
2019-01-03T22:06:29.049Z,61.68
2019-01-03T22:09:16.897Z,61.45
2019-01-03T22:12:04.109Z,61.30
2019-01-03T22:14:51.543Z,61.09
2019-01-03T22:17:38.356Z,61.18
2019-01-03T22:20:25.711Z,61.36
2019-01-03T22:23:12.960Z,61.44
2019-01-03T22:25:59.921Z,61.50
2019-01-03T22:28:46.931Z,61.61
2019-01-03T22:31:34.209Z,61.51
2019-01-03T22:34:21.242Z,61.63
2019-01-03T22:37:08.324Z,61.76
2019-01-03T22:39:55.571Z,61.99
2019-01-03T22:42:42.629Z,63.11
2019-01-03T22:45:29.800Z,62.86
2019-01-03T22:48:16.615Z,62.86
2019-01-03T22:51:03.907Z,63.06
2019-01-03T22:53:50.985Z,62.90
2019-01-03T22:56:38.001Z,63.08
2019-01-03T22:59:25.374Z,63.55
2019-01-03T23:02:13.384Z,64.61
2019-01-03T23:05:00.452Z,63.94
2019-01-03T23:07:47.513Z,63.81
2019-01-03T23:10:34.702Z,63.76
2019-01-03T23:13:21.983Z,64.25
2019-01-03T23:16:09.464Z,63.76
2019-01-03T23:18:56.666Z,64.17
2019-01-03T23:21:44.774Z,64.97
2019-01-03T23:24:31.891Z,65.04
2019-01-03T23:27:19.076Z,64.13
2019-01-03T23:30:08.440Z,63.55
2019-01-03T23:32:55.910Z,63.66
2019-01-03T23:35:42.964Z,63.26
2019-01-03T23:38:30.489Z,62.94
2019-01-03T23:41:18.100Z,62.64
2019-01-03T23:44:05.473Z,62.28
2019-01-03T23:46:52.691Z,62.65
2019-01-03T23:49:40.270Z,63.43
2019-01-03T23:52:27.773Z,66.33
2019-01-03T23:55:15.344Z,65.27
2019-01-03T23:58:02.773Z,64.02
